createdAt,value
2018-03-15T00:00:50.499Z,13.90
2018-03-15T00:03:23.612Z,15.40
2018-03-15T00:05:51.117Z,13.17
2018-03-15T00:08:18.631Z,14.97
2018-03-15T00:10:46.124Z,15.00
2018-03-15T00:13:13.643Z,14.80
2018-03-15T00:15:41.308Z,14.87
2018-03-15T00:18:08.808Z,15.83
2018-03-15T00:20:36.480Z,14.90
2018-03-15T00:23:04.010Z,13.60
2018-03-15T00:25:31.760Z,15.80
2018-03-15T00:27:59.504Z,16.03
2018-03-15T00:30:27.006Z,13.23
2018-03-15T00:32:54.525Z,16.20
2018-03-15T00:35:22.019Z,14.83
2018-03-15T00:37:50.296Z,14.30
2018-03-15T00:40:18.022Z,14.37
2018-03-15T00:42:45.586Z,15.03
2018-03-15T00:45:13.231Z,16.13
2018-03-15T00:47:40.744Z,46.17
2018-03-15T00:50:08.457Z,14.40
2018-03-15T00:52:35.964Z,17.10
2018-03-15T00:55:03.488Z,15.20
2018-03-15T00:57:31.127Z,20.40
2018-03-15T00:59:58.615Z,17.03
2018-03-15T01:02:26.130Z,16.00
2018-03-15T01:04:53.790Z,14.63
2018-03-15T01:07:21.285Z,14.57
2018-03-15T01:09:48.804Z,15.77
2018-03-15T01:12:16.424Z,16.30
2018-03-15T01:14:43.926Z,14.60
2018-03-15T01:17:11.425Z,14.53
2018-03-15T01:19:39.143Z,14.30
2018-03-15T01:22:06.759Z,13.43
2018-03-15T01:24:35.038Z,14.17
2018-03-15T01:27:02.531Z,16.50
2018-03-15T01:29:30.034Z,14.30
2018-03-15T01:31:57.532Z,13.53
2018-03-15T01:34:25.034Z,16.10
2018-03-15T01:36:52.535Z,15.27
2018-03-15T01:39:20.052Z,15.17
2018-03-15T01:41:47.564Z,14.17
2018-03-15T01:44:15.084Z,15.90
2018-03-15T01:46:42.731Z,13.90
2018-03-15T01:49:10.243Z,14.50
2018-03-15T01:51:37.736Z,12.50
2018-03-15T01:54:05.247Z,13.30
2018-03-15T01:56:32.752Z,14.07
2018-03-15T01:59:00.308Z,14.27
2018-03-15T02:01:27.816Z,12.67
2018-03-15T02:03:55.328Z,12.27
2018-03-15T02:06:22.835Z,12.77
2018-03-15T02:08:51.096Z,11.60
2018-03-15T02:11:18.604Z,13.20
2018-03-15T02:13:46.112Z,12.50
2018-03-15T02:16:14.380Z,15.20
2018-03-15T02:18:42.052Z,12.40
2018-03-15T02:21:10.054Z,10.97
2018-03-15T02:23:37.627Z,11.10
2018-03-15T02:26:05.134Z,10.40
2018-03-15T02:28:32.819Z,11.03
2018-03-15T02:31:00.341Z,11.13
2018-03-15T02:33:27.837Z,10.00
2018-03-15T02:35:55.535Z,10.13
2018-03-15T02:38:23.300Z,9.37
2018-03-15T02:40:51.502Z,10.03
2018-03-15T02:43:19.003Z,8.80
2018-03-15T02:45:46.511Z,10.63
2018-03-15T02:48:14.019Z,9.37
2018-03-15T02:50:41.528Z,8.23
2018-03-15T02:53:09.033Z,9.30
2018-03-15T02:55:36.724Z,8.60
2018-03-15T02:58:04.489Z,9.80
2018-03-15T03:00:31.980Z,7.40
2018-03-15T03:02:59.700Z,6.83
2018-03-15T03:05:27.191Z,8.17
2018-03-15T03:07:54.683Z,6.60
2018-03-15T03:10:22.375Z,6.70
2018-03-15T03:12:49.875Z,6.20
2018-03-15T03:15:17.560Z,6.53
2018-03-15T03:17:45.059Z,7.10
2018-03-15T03:20:12.791Z,6.90
2018-03-15T03:22:40.580Z,5.63
2018-03-15T03:25:08.087Z,6.50
2018-03-15T03:27:35.805Z,6.70
2018-03-15T03:30:03.291Z,6.83
2018-03-15T03:32:31.019Z,6.00
2018-03-15T03:34:58.512Z,6.20
2018-03-15T03:37:26.124Z,6.23
2018-03-15T03:39:53.703Z,6.20
2018-03-15T03:42:21.219Z,6.90
2018-03-15T03:44:48.771Z,6.13
2018-03-15T03:47:16.731Z,5.13
2018-03-15T03:49:44.228Z,5.90
2018-03-15T03:52:11.908Z,6.80
2018-03-15T03:54:39.403Z,7.10
2018-03-15T03:57:06.908Z,6.20
2018-03-15T03:59:34.403Z,5.80
2018-03-15T04:02:02.040Z,6.23
2018-03-15T04:04:29.800Z,5.70
2018-03-15T04:06:57.575Z,5.27
2018-03-15T04:09:25.344Z,5.10
2018-03-15T04:11:53.124Z,6.37
2018-03-15T04:14:20.628Z,6.13
2018-03-15T04:16:48.303Z,5.93
2018-03-15T04:19:15.803Z,6.20
2018-03-15T04:21:43.531Z,6.90
2018-03-15T04:24:11.027Z,6.30
2018-03-15T04:26:38.531Z,7.90
2018-03-15T04:29:06.264Z,7.10
2018-03-15T04:31:33.751Z,7.00
2018-03-15T04:34:01.264Z,7.30
2018-03-15T04:36:28.889Z,7.13
2018-03-15T04:41:30.463Z,8.40
2018-03-15T04:43:58.011Z,9.07
2018-03-15T04:46:25.504Z,9.07
2018-03-15T04:48:53.016Z,9.17
2018-03-15T04:51:20.665Z,9.50
2018-03-15T04:53:48.271Z,9.10
2018-03-15T04:56:15.900Z,10.67
2018-03-15T04:58:43.631Z,10.77
2018-03-15T05:01:11.144Z,9.77
2018-03-15T05:03:38.776Z,10.33
2018-03-15T05:06:06.307Z,11.60
2018-03-15T05:08:33.846Z,10.70
2018-03-15T05:11:01.395Z,10.83
2018-03-15T05:13:29.047Z,10.23
2018-03-15T05:15:56.557Z,10.80
2018-03-15T05:18:24.064Z,11.23
2018-03-15T05:20:51.685Z,12.13
2018-03-15T05:23:19.204Z,9.93
2018-03-15T05:25:46.923Z,11.47
2018-03-15T05:28:14.419Z,13.20
2018-03-15T05:30:41.927Z,11.90
2018-03-15T05:33:09.474Z,11.40
2018-03-15T05:35:36.987Z,10.07
2018-03-15T05:38:04.483Z,11.43
2018-03-15T05:40:31.990Z,10.07
2018-03-15T05:42:59.704Z,10.57
2018-03-15T05:45:27.215Z,12.20
2018-03-15T05:47:54.718Z,30.23
2018-03-15T05:50:22.240Z,14.27
2018-03-15T05:52:50.528Z,12.53
2018-03-15T05:55:18.231Z,10.83
2018-03-15T05:57:45.732Z,11.27
2018-03-15T06:00:13.440Z,11.50
2018-03-15T06:02:41.226Z,10.93
2018-03-15T06:05:08.736Z,11.80
2018-03-15T06:07:36.356Z,11.17
2018-03-15T06:10:03.875Z,11.00
2018-03-15T06:12:31.687Z,11.73
2018-03-15T06:14:59.172Z,12.13
2018-03-15T06:17:26.720Z,10.63
2018-03-15T06:19:55.284Z,10.70
2018-03-15T06:22:22.898Z,10.37
2018-03-15T06:24:50.443Z,10.00
2018-03-15T06:27:17.963Z,9.70
2018-03-15T06:29:45.672Z,10.40
2018-03-15T06:32:13.343Z,8.60
2018-03-15T06:34:40.848Z,7.23
2018-03-15T06:37:08.380Z,7.00
2018-03-15T06:39:35.884Z,7.37
2018-03-15T06:42:03.391Z,7.17
2018-03-15T06:44:30.891Z,7.70
2018-03-15T06:46:59.375Z,7.97
2018-03-15T06:49:26.876Z,6.97
2018-03-15T06:51:54.588Z,8.40
2018-03-15T06:54:22.855Z,8.40
2018-03-15T06:56:50.368Z,6.67
2018-03-15T06:59:17.904Z,9.20
2018-03-15T07:01:45.705Z,6.77
2018-03-15T07:04:13.243Z,6.50
2018-03-15T07:06:40.753Z,7.00
2018-03-15T07:09:08.245Z,5.10
2018-03-15T07:11:36.550Z,5.87
2018-03-15T07:14:04.055Z,6.10
2018-03-15T07:16:32.604Z,5.70
2018-03-15T07:19:00.096Z,6.30
2018-03-15T07:21:28.439Z,6.67
2018-03-15T07:23:55.920Z,6.03
2018-03-15T07:26:23.420Z,6.10
2018-03-15T07:28:50.915Z,6.17
2018-03-15T07:31:19.171Z,5.80
2018-03-15T07:33:46.665Z,6.03
2018-03-15T07:36:14.199Z,7.57
2018-03-15T07:38:41.723Z,6.87
2018-03-15T07:41:09.296Z,7.30
2018-03-15T07:43:36.813Z,7.23
2018-03-15T07:46:04.498Z,6.87
2018-03-15T07:48:31.987Z,7.77
2018-03-15T07:50:59.491Z,7.43
2018-03-15T07:53:27.169Z,8.07
2018-03-15T07:55:54.671Z,8.10
2018-03-15T07:58:22.170Z,8.53
2018-03-15T08:00:49.677Z,8.17
2018-03-15T08:03:17.172Z,6.93
2018-03-15T08:05:45.428Z,7.40
2018-03-15T08:08:13.700Z,7.80
2018-03-15T08:10:41.200Z,8.23
2018-03-15T08:13:08.728Z,6.67
2018-03-15T08:15:36.259Z,7.17
2018-03-15T08:18:03.796Z,7.57
2018-03-15T08:20:31.295Z,7.97
2018-03-15T08:22:58.831Z,9.50
2018-03-15T08:25:26.323Z,7.87
2018-03-15T08:27:53.870Z,6.23
2018-03-15T08:30:21.359Z,6.83
2018-03-15T08:32:48.968Z,7.40
2018-03-15T08:35:16.480Z,8.03
2018-03-15T08:37:43.979Z,7.67
2018-03-15T08:40:11.638Z,6.67
2018-03-15T08:42:39.137Z,6.30
2018-03-15T08:45:06.864Z,6.50
2018-03-15T08:47:34.468Z,7.13
2018-03-15T08:50:02.881Z,6.23
2018-03-15T08:52:30.456Z,7.00
2018-03-15T08:54:57.964Z,6.73
2018-03-15T08:57:25.760Z,6.60
2018-03-15T08:59:53.257Z,7.07
2018-03-15T09:02:20.756Z,6.67
2018-03-15T09:04:48.401Z,6.63
2018-03-15T09:07:16.123Z,7.10
2018-03-15T09:09:43.632Z,7.10
2018-03-15T09:12:11.151Z,7.80
2018-03-15T09:14:38.771Z,8.83
2018-03-15T09:17:06.269Z,8.00
2018-03-15T09:19:33.767Z,8.20
2018-03-15T09:22:01.480Z,8.70
2018-03-15T09:24:28.971Z,8.70
2018-03-15T09:26:56.660Z,8.43
2018-03-15T09:29:24.161Z,8.27
2018-03-15T09:31:51.655Z,9.10
2018-03-15T09:34:19.159Z,11.00
2018-03-15T09:36:46.663Z,9.20
2018-03-15T09:39:15.199Z,8.70
2018-03-15T09:41:42.704Z,10.17
2018-03-15T09:44:10.228Z,10.53
2018-03-15T09:46:37.731Z,9.87
2018-03-15T09:49:05.991Z,9.93
2018-03-15T09:51:33.496Z,10.80
2018-03-15T09:54:01.000Z,10.13
2018-03-15T09:56:28.631Z,10.47
2018-03-15T09:58:56.393Z,10.83
2018-03-15T10:01:23.896Z,10.07
2018-03-15T10:03:51.427Z,11.70
2018-03-15T10:06:19.037Z,10.67
2018-03-15T10:08:46.833Z,11.27
2018-03-15T10:11:14.336Z,12.03
2018-03-15T10:13:42.561Z,12.33
2018-03-15T10:16:10.239Z,11.97
2018-03-15T10:18:37.769Z,13.70
2018-03-15T10:21:05.280Z,11.93
2018-03-15T10:23:32.800Z,13.40
2018-03-15T10:26:00.308Z,12.20
2018-03-15T10:28:27.967Z,12.60
2018-03-15T10:30:56.352Z,12.80
2018-03-15T10:33:29.427Z,12.67
2018-03-15T10:35:56.936Z,13.77
2018-03-15T10:38:24.437Z,12.80
2018-03-15T10:40:52.711Z,14.03
2018-03-15T10:43:20.395Z,13.70
2018-03-15T10:45:47.904Z,13.20
2018-03-15T10:48:15.412Z,14.30
2018-03-15T10:50:42.919Z,14.53
2018-03-15T10:53:10.563Z,13.57
2018-03-15T10:55:38.264Z,13.73
2018-03-15T10:58:05.763Z,14.80
2018-03-15T11:00:38.989Z,14.10
2018-03-15T11:03:12.203Z,16.07
2018-03-15T11:05:46.268Z,14.67
2018-03-15T11:08:19.581Z,14.87
2018-03-15T11:10:47.088Z,14.20
2018-03-15T11:13:14.805Z,15.13
2018-03-15T11:15:42.511Z,14.20
2018-03-15T11:18:11.188Z,13.40
2018-03-15T11:20:38.720Z,14.67
2018-03-15T11:23:06.337Z,14.77
2018-03-15T11:25:33.919Z,12.47
2018-03-15T11:28:01.424Z,14.97
2018-03-15T11:30:28.928Z,13.63
2018-03-15T11:32:56.562Z,17.40
2018-03-15T11:35:24.797Z,17.83
2018-03-15T11:37:52.303Z,19.70
2018-03-15T11:40:19.799Z,18.80
2018-03-15T11:42:47.316Z,17.20
2018-03-15T11:45:14.813Z,19.57
2018-03-15T11:47:42.323Z,20.30
2018-03-15T11:50:09.995Z,18.83
2018-03-15T11:52:37.789Z,17.90
2018-03-15T11:55:05.655Z,20.20
2018-03-15T11:57:33.321Z,18.17
2018-03-15T12:00:01.072Z,17.27
2018-03-15T12:02:28.843Z,18.17
2018-03-15T12:04:56.335Z,18.83
2018-03-15T12:07:23.846Z,17.23
2018-03-15T12:09:51.343Z,17.63
2018-03-15T12:12:18.989Z,16.53
2018-03-15T12:14:46.739Z,19.10
2018-03-15T12:17:14.287Z,15.77
2018-03-15T12:19:41.975Z,17.63
2018-03-15T12:22:09.487Z,19.47
2018-03-15T12:24:37.172Z,16.07
2018-03-15T12:27:04.731Z,16.57
2018-03-15T12:29:32.244Z,17.40
2018-03-15T12:32:00.506Z,17.27
2018-03-15T12:34:28.202Z,17.47
2018-03-15T12:36:56.348Z,12.00
2018-03-15T12:39:24.068Z,15.37
2018-03-15T12:41:54.296Z,16.93
2018-03-15T12:44:21.927Z,15.20
2018-03-15T12:46:49.512Z,16.10
2018-03-15T12:49:17.024Z,16.70
2018-03-15T12:51:44.683Z,15.50
2018-03-15T12:54:12.191Z,15.47
2018-03-15T12:56:39.947Z,15.60
2018-03-15T12:59:07.457Z,14.87
2018-03-15T13:01:35.143Z,15.73
2018-03-15T13:04:02.924Z,14.73
2018-03-15T13:06:30.708Z,16.40
2018-03-15T13:08:58.456Z,15.80
2018-03-15T13:11:25.957Z,16.20
2018-03-15T13:13:53.472Z,17.13
2018-03-15T13:16:20.976Z,16.80
2018-03-15T13:18:49.675Z,15.60
2018-03-15T13:21:17.277Z,18.23
2018-03-15T13:23:44.789Z,18.60
2018-03-15T13:26:12.292Z,17.57
2018-03-15T13:28:40.972Z,17.93
2018-03-15T13:31:08.520Z,15.90
2018-03-15T13:33:36.095Z,17.27
2018-03-15T13:36:03.814Z,17.43
2018-03-15T13:38:31.308Z,16.90
2018-03-15T13:40:58.815Z,17.30
2018-03-15T13:43:26.531Z,17.20
2018-03-15T13:45:54.032Z,18.73
2018-03-15T13:48:21.931Z,17.23
2018-03-15T13:50:49.485Z,17.30
2018-03-15T13:53:17.291Z,17.23
2018-03-15T13:55:45.040Z,16.80
2018-03-15T13:58:12.814Z,16.47
2018-03-15T14:00:40.315Z,17.77
2018-03-15T14:03:07.825Z,16.87
2018-03-15T14:05:35.337Z,16.10
2018-03-15T14:08:02.843Z,17.20
2018-03-15T14:10:30.359Z,18.37
2018-03-15T14:12:57.860Z,14.80
2018-03-15T14:15:25.612Z,16.13
2018-03-15T14:17:53.391Z,17.10
2018-03-15T14:20:22.417Z,15.77
2018-03-15T14:22:50.696Z,15.87
2018-03-15T14:25:18.208Z,16.10
2018-03-15T14:27:45.712Z,14.20
2018-03-15T14:30:13.745Z,15.83
2018-03-15T14:32:41.255Z,15.33
2018-03-15T14:35:08.931Z,16.00
2018-03-15T14:37:36.431Z,15.67
2018-03-15T14:40:03.948Z,14.07
2018-03-15T14:42:31.631Z,14.53
2018-03-15T14:44:59.395Z,14.43
2018-03-15T14:47:26.907Z,15.37
2018-03-15T14:49:54.412Z,14.83
2018-03-15T14:52:22.686Z,14.73
2018-03-15T14:54:50.299Z,14.70
2018-03-15T14:57:17.808Z,15.20
2018-03-15T14:59:45.324Z,17.27
2018-03-15T15:02:12.872Z,15.47
2018-03-15T15:04:40.601Z,14.70
2018-03-15T15:07:08.349Z,14.10
2018-03-15T15:09:35.860Z,15.30
2018-03-15T15:12:03.367Z,13.30
2018-03-15T15:14:30.937Z,16.00
2018-03-15T15:16:58.412Z,14.43
2018-03-15T15:19:25.940Z,13.20
2018-03-15T15:21:53.695Z,13.90
2018-03-15T15:24:21.193Z,12.57
2018-03-15T15:26:48.712Z,13.50
2018-03-15T15:29:16.351Z,13.67
2018-03-15T15:31:43.858Z,12.57
2018-03-15T15:34:11.465Z,11.47
2018-03-15T15:36:38.980Z,12.90
2018-03-15T15:39:06.480Z,12.33
2018-03-15T15:41:33.988Z,12.07
2018-03-15T15:44:01.711Z,13.50
2018-03-15T15:46:29.219Z,14.00
2018-03-15T15:48:56.727Z,13.40
2018-03-15T15:51:24.239Z,12.47
2018-03-15T15:53:52.514Z,11.57
2018-03-15T15:56:20.243Z,12.03
2018-03-15T15:58:48.038Z,12.53
2018-03-15T16:01:15.777Z,13.60
2018-03-15T16:03:43.277Z,13.20
2018-03-15T16:06:10.783Z,13.40
2018-03-15T16:08:38.308Z,11.53
2018-03-15T16:11:05.792Z,11.03
2018-03-15T16:13:33.328Z,12.30
2018-03-15T16:16:00.843Z,13.07
2018-03-15T16:18:28.357Z,11.87
2018-03-15T16:20:55.855Z,12.20
2018-03-15T16:23:23.375Z,11.60
2018-03-15T16:25:50.947Z,11.20
2018-03-15T16:28:18.471Z,11.73
2018-03-15T16:30:46.139Z,11.73
2018-03-15T16:33:13.929Z,10.10
2018-03-15T16:35:41.434Z,10.43
2018-03-15T16:38:09.151Z,11.30
2018-03-15T16:40:36.924Z,11.97
2018-03-15T16:43:04.686Z,10.50
2018-03-15T16:45:32.336Z,11.00
2018-03-15T16:47:59.868Z,12.07
2018-03-15T16:50:27.368Z,10.93
2018-03-15T16:52:54.888Z,11.00
2018-03-15T16:55:22.395Z,10.37
2018-03-15T16:57:49.921Z,10.70
2018-03-15T17:00:17.423Z,11.00
2018-03-15T17:02:44.955Z,10.53
2018-03-15T17:05:12.487Z,10.73
2018-03-15T17:07:40.176Z,12.17
2018-03-15T17:10:07.929Z,10.73
2018-03-15T17:12:35.774Z,10.00
2018-03-15T17:15:03.984Z,8.90
2018-03-15T17:17:31.510Z,9.77
2018-03-15T17:19:59.629Z,10.87
2018-03-15T17:22:27.143Z,9.57
2018-03-15T17:24:54.649Z,9.60
2018-03-15T17:27:22.907Z,9.30
2018-03-15T17:29:50.465Z,10.00
2018-03-15T17:32:18.132Z,9.97
2018-03-15T17:34:45.842Z,8.73
2018-03-15T17:37:13.371Z,9.63
2018-03-15T17:39:41.072Z,9.50
2018-03-15T17:42:08.566Z,9.10
2018-03-15T17:44:36.089Z,10.03
2018-03-15T17:47:03.601Z,11.00
2018-03-15T17:49:31.880Z,10.30
2018-03-15T17:51:59.384Z,10.30
2018-03-15T17:54:27.067Z,10.07
2018-03-15T17:56:54.571Z,9.17
2018-03-15T17:59:23.040Z,10.30
2018-03-15T18:01:51.750Z,9.87
2018-03-15T18:04:19.256Z,8.70
2018-03-15T18:06:46.764Z,10.40
2018-03-15T18:09:14.576Z,10.10
2018-03-15T18:11:42.088Z,9.83
2018-03-15T18:14:09.600Z,9.50
2018-03-15T18:16:37.257Z,9.07
2018-03-15T18:19:10.485Z,9.80
2018-03-15T18:21:37.993Z,10.13
2018-03-15T18:24:05.510Z,10.40
2018-03-15T18:26:33.010Z,9.50
2018-03-15T18:29:00.679Z,9.47
2018-03-15T18:31:28.436Z,9.07
2018-03-15T18:33:55.928Z,9.27
2018-03-15T18:36:23.440Z,8.37
2018-03-15T18:38:50.996Z,9.53
2018-03-15T18:41:18.523Z,9.33
2018-03-15T18:43:46.008Z,9.67
2018-03-15T18:46:13.511Z,10.70
2018-03-15T18:48:41.157Z,10.43
2018-03-15T18:51:08.694Z,10.30
2018-03-15T18:53:36.185Z,9.67
2018-03-15T18:56:03.692Z,9.77
2018-03-15T18:58:31.815Z,9.50
2018-03-15T19:01:00.091Z,10.40
2018-03-15T19:03:27.818Z,10.43
2018-03-15T19:05:55.315Z,10.20
2018-03-15T19:08:23.008Z,11.27
2018-03-15T19:10:50.519Z,9.93
2018-03-15T19:13:18.266Z,10.57
2018-03-15T19:15:46.015Z,11.40
2018-03-15T19:18:13.524Z,10.63
2018-03-15T19:20:41.238Z,8.57
2018-03-15T19:23:09.004Z,10.63
2018-03-15T19:25:36.519Z,11.07
2018-03-15T19:28:04.222Z,11.27
2018-03-15T19:30:31.737Z,9.20
2018-03-15T19:32:59.234Z,9.43
2018-03-15T19:35:26.736Z,8.13
2018-03-15T19:37:55.000Z,9.20
2018-03-15T19:40:22.688Z,9.67
2018-03-15T19:42:50.195Z,8.70
2018-03-15T19:45:17.694Z,10.23
2018-03-15T19:47:45.324Z,8.20
2018-03-15T19:50:12.820Z,8.17
2018-03-15T19:52:40.319Z,8.73
2018-03-15T19:55:07.824Z,7.83
2018-03-15T19:57:36.091Z,7.43
2018-03-15T20:00:03.602Z,8.53
2018-03-15T20:02:31.103Z,7.87
2018-03-15T20:04:58.832Z,8.03
2018-03-15T20:07:26.337Z,7.87
2018-03-15T20:09:53.834Z,7.97
2018-03-15T20:12:21.330Z,7.60
2018-03-15T20:14:49.759Z,6.10
2018-03-15T20:17:17.263Z,7.20
2018-03-15T20:19:44.752Z,8.13
2018-03-15T20:22:12.266Z,7.00
2018-03-15T20:24:39.760Z,6.97
2018-03-15T20:27:07.421Z,6.83
2018-03-15T20:29:34.917Z,8.13
2018-03-15T20:32:02.840Z,7.77
2018-03-15T20:34:31.095Z,7.40
2018-03-15T20:36:58.827Z,7.37
2018-03-15T20:39:31.959Z,7.03
2018-03-15T20:42:00.227Z,7.13
2018-03-15T20:44:27.943Z,7.20
2018-03-15T20:47:01.183Z,6.97
2018-03-15T20:49:28.655Z,8.67
2018-03-15T20:51:56.171Z,7.43
2018-03-15T20:54:23.671Z,6.37
2018-03-15T20:56:51.384Z,5.93
2018-03-15T20:59:18.892Z,6.43
2018-03-15T21:01:47.221Z,10.43
2018-03-15T21:04:14.724Z,7.33
2018-03-15T21:06:42.682Z,6.50
2018-03-15T21:09:10.207Z,6.50
2018-03-15T21:11:37.704Z,6.63
2018-03-15T21:14:05.540Z,6.37
2018-03-15T21:16:33.043Z,7.10
2018-03-15T21:19:00.658Z,6.40
2018-03-15T21:21:28.416Z,5.97
2018-03-15T21:23:55.919Z,5.90
2018-03-15T21:26:23.421Z,5.73
2018-03-15T21:28:50.919Z,7.03
2018-03-15T21:31:19.309Z,7.00
2018-03-15T21:33:50.354Z,6.47
2018-03-15T21:36:17.891Z,6.70
2018-03-15T21:38:45.371Z,6.60
2018-03-15T21:41:12.896Z,6.80
2018-03-15T21:43:40.403Z,7.77
2018-03-15T21:46:07.895Z,6.60
2018-03-15T21:48:35.647Z,7.50
2018-03-15T21:51:03.459Z,8.40
2018-03-15T21:53:30.979Z,8.33
2018-03-15T21:55:58.627Z,8.33
2018-03-15T21:58:26.953Z,7.53
2018-03-15T22:00:54.444Z,7.10
2018-03-15T22:03:21.940Z,7.63
2018-03-15T22:05:49.480Z,7.23
2018-03-15T22:08:16.975Z,7.30
2018-03-15T22:10:45.248Z,7.87
2018-03-15T22:13:12.765Z,10.17
2018-03-15T22:15:40.426Z,11.00
2018-03-15T22:18:07.925Z,9.80
2018-03-15T22:20:35.427Z,9.30
2018-03-15T22:23:02.923Z,8.67
2018-03-15T22:25:30.447Z,6.70
2018-03-15T22:27:57.939Z,17.27
2018-03-15T22:30:25.448Z,16.00
2018-03-15T22:32:53.245Z,9.17
2018-03-15T22:35:21.004Z,8.60
2018-03-15T22:37:48.499Z,8.20
2018-03-15T22:40:16.224Z,9.13
2018-03-15T22:42:43.726Z,8.93
2018-03-15T22:45:11.232Z,9.27
2018-03-15T22:47:38.903Z,9.00
2018-03-15T22:50:06.424Z,8.30
2018-03-15T22:52:33.919Z,8.77
2018-03-15T22:55:01.547Z,9.37
2018-03-15T22:57:29.088Z,10.00
2018-03-15T22:59:56.795Z,9.10
2018-03-15T23:02:24.307Z,8.73
2018-03-15T23:04:51.811Z,10.10
2018-03-15T23:07:19.316Z,10.83
2018-03-15T23:09:47.583Z,10.57
2018-03-15T23:12:15.115Z,10.57
2018-03-15T23:14:42.735Z,8.10
2018-03-15T23:17:10.223Z,9.40
2018-03-15T23:19:37.726Z,10.53
2018-03-15T23:22:06.271Z,10.00
2018-03-15T23:24:33.819Z,10.83
2018-03-15T23:27:01.585Z,10.47
2018-03-15T23:29:29.086Z,10.63
2018-03-15T23:31:56.739Z,11.13
2018-03-15T23:34:24.252Z,11.67
2018-03-15T23:36:51.752Z,10.87
2018-03-15T23:39:19.448Z,11.50
2018-03-15T23:41:46.951Z,12.60
2018-03-15T23:44:14.458Z,11.73
2018-03-15T23:46:42.164Z,12.70
2018-03-15T23:49:09.924Z,11.70
2018-03-15T23:51:37.436Z,12.53
2018-03-15T23:54:05.135Z,12.03
2018-03-15T23:56:32.654Z,12.17
2018-03-15T23:59:00.164Z,13.43
